sensor_id;sensor_type;location;lat;lon;timestamp;P1;durP1;ratioP1;P2;durP2;ratioP2
3343;SDS011;1685;53.104;8.228;2022-12-07T00:01:05;23.93;;;12.30;;
3343;SDS011;1685;53.104;8.228;2022-12-07T00:03:32;30.80;;;12.40;;
3343;SDS011;1685;53.104;8.228;2022-12-07T00:05:59;26.17;;;12.60;;
3343;SDS011;1685;53.104;8.228;2022-12-07T00:08:27;24.30;;;12.63;;
3343;SDS011;1685;53.104;8.228;2022-12-07T00:10:54;19.73;;;11.43;;
3343;SDS011;1685;53.104;8.228;2022-12-07T00:13:20;25.33;;;11.90;;
3343;SDS011;1685;53.104;8.228;2022-12-07T00:15:47;20.13;;;13.03;;
3343;SDS011;1685;53.104;8.228;2022-12-07T00:18:15;23.10;;;10.47;;
3343;SDS011;1685;53.104;8.228;2022-12-07T00:20:42;19.20;;;11.63;;
3343;SDS011;1685;53.104;8.228;2022-12-07T00:23:09;27.43;;;10.67;;
3343;SDS011;1685;53.104;8.228;2022-12-07T00:25:36;17.67;;;10.47;;
3343;SDS011;1685;53.104;8.228;2022-12-07T00:28:03;21.93;;;10.73;;
3343;SDS011;1685;53.104;8.228;2022-12-07T00:30:30;23.30;;;11.40;;
3343;SDS011;1685;53.104;8.228;2022-12-07T00:32:57;24.50;;;11.17;;
3343;SDS011;1685;53.104;8.228;2022-12-07T00:35:25;14.20;;;9.30;;
3343;SDS011;1685;53.104;8.228;2022-12-07T00:37:51;16.77;;;8.83;;
3343;SDS011;1685;53.104;8.228;2022-12-07T00:40:19;13.77;;;8.57;;
3343;SDS011;1685;53.104;8.228;2022-12-07T00:42:46;16.53;;;9.20;;
3343;SDS011;1685;53.104;8.228;2022-12-07T00:45:13;15.77;;;9.00;;
3343;SDS011;1685;53.104;8.228;2022-12-07T00:47:40;18.60;;;8.47;;
3343;SDS011;1685;53.104;8.228;2022-12-07T00:50:07;16.17;;;9.40;;
3343;SDS011;1685;53.104;8.228;2022-12-07T00:52:35;14.97;;;8.20;;
3343;SDS011;1685;53.104;8.228;2022-12-07T00:55:02;15.07;;;7.90;;
3343;SDS011;1685;53.104;8.228;2022-12-07T00:57:30;11.50;;;6.47;;
3343;SDS011;1685;53.104;8.228;2022-12-07T00:59:57;21.53;;;6.50;;
3343;SDS011;1685;53.104;8.228;2022-12-07T01:02:25;16.67;;;6.10;;
3343;SDS011;1685;53.104;8.228;2022-12-07T01:04:52;11.60;;;6.60;;
3343;SDS011;1685;53.104;8.228;2022-12-07T01:07:19;15.53;;;6.10;;
3343;SDS011;1685;53.104;8.228;2022-12-07T01:09:47;14.17;;;6.83;;
3343;SDS011;1685;53.104;8.228;2022-12-07T01:12:14;18.50;;;7.03;;
3343;SDS011;1685;53.104;8.228;2022-12-07T01:14:41;16.20;;;6.97;;
3343;SDS011;1685;53.104;8.228;2022-12-07T01:17:08;12.97;;;7.03;;
3343;SDS011;1685;53.104;8.228;2022-12-07T01:19:35;9.50;;;6.70;;
3343;SDS011;1685;53.104;8.228;2022-12-07T01:22:01;14.43;;;6.27;;
3343;SDS011;1685;53.104;8.228;2022-12-07T01:24:28;9.30;;;6.10;;
3343;SDS011;1685;53.104;8.228;2022-12-07T01:26:56;13.77;;;7.50;;
3343;SDS011;1685;53.104;8.228;2022-12-07T01:29:23;10.20;;;7.03;;
3343;SDS011;1685;53.104;8.228;2022-12-07T01:31:49;18.40;;;7.90;;
3343;SDS011;1685;53.104;8.228;2022-12-07T01:34:16;16.67;;;7.07;;
3343;SDS011;1685;53.104;8.228;2022-12-07T01:36:43;15.87;;;8.50;;
3343;SDS011;1685;53.104;8.228;2022-12-07T01:39:10;12.73;;;7.80;;
3343;SDS011;1685;53.104;8.228;2022-12-07T01:41:37;19.00;;;8.07;;
3343;SDS011;1685;53.104;8.228;2022-12-07T01:44:17;12.73;;;7.53;;
3343;SDS011;1685;53.104;8.228;2022-12-07T01:46:47;12.60;;;7.60;;
3343;SDS011;1685;53.104;8.228;2022-12-07T01:49:20;16.20;;;8.70;;
3343;SDS011;1685;53.104;8.228;2022-12-07T01:51:55;21.10;;;10.20;;
3343;SDS011;1685;53.104;8.228;2022-12-07T01:54:27;17.60;;;9.33;;
3343;SDS011;1685;53.104;8.228;2022-12-07T01:56:54;21.60;;;9.63;;
3343;SDS011;1685;53.104;8.228;2022-12-07T01:59:25;19.80;;;9.97;;
3343;SDS011;1685;53.104;8.228;2022-12-07T02:01:52;15.77;;;8.50;;
3343;SDS011;1685;53.104;8.228;2022-12-07T02:04:21;14.67;;;7.40;;
3343;SDS011;1685;53.104;8.228;2022-12-07T02:06:48;15.87;;;9.13;;
3343;SDS011;1685;53.104;8.228;2022-12-07T02:09:16;19.70;;;8.03;;
3343;SDS011;1685;53.104;8.228;2022-12-07T02:11:44;14.47;;;8.10;;
3343;SDS011;1685;53.104;8.228;2022-12-07T02:14:10;12.90;;;8.63;;
3343;SDS011;1685;53.104;8.228;2022-12-07T02:16:41;15.53;;;8.10;;
3343;SDS011;1685;53.104;8.228;2022-12-07T02:22:14;14.13;;;8.13;;
3343;SDS011;1685;53.104;8.228;2022-12-07T02:24:54;19.50;;;8.47;;
3343;SDS011;1685;53.104;8.228;2022-12-07T02:27:34;19.63;;;9.00;;
3343;SDS011;1685;53.104;8.228;2022-12-07T02:30:07;23.23;;;10.07;;
3343;SDS011;1685;53.104;8.228;2022-12-07T02:32:39;16.50;;;8.97;;
3343;SDS011;1685;53.104;8.228;2022-12-07T02:35:10;16.63;;;9.23;;
3343;SDS011;1685;53.104;8.228;2022-12-07T02:37:43;15.03;;;9.10;;
3343;SDS011;1685;53.104;8.228;2022-12-07T02:40:18;21.97;;;9.00;;
3343;SDS011;1685;53.104;8.228;2022-12-07T02:42:50;29.63;;;9.63;;
3343;SDS011;1685;53.104;8.228;2022-12-07T02:45:22;15.00;;;8.70;;
3343;SDS011;1685;53.104;8.228;2022-12-07T02:47:53;17.67;;;10.13;;
3343;SDS011;1685;53.104;8.228;2022-12-07T02:50:24;14.33;;;8.13;;
3343;SDS011;1685;53.104;8.228;2022-12-07T02:52:51;15.23;;;8.53;;
3343;SDS011;1685;53.104;8.228;2022-12-07T02:55:19;15.00;;;8.37;;
3343;SDS011;1685;53.104;8.228;2022-12-07T02:57:53;19.57;;;9.33;;
3343;SDS011;1685;53.104;8.228;2022-12-07T03:00:28;11.80;;;7.80;;
3343;SDS011;1685;53.104;8.228;2022-12-07T03:02:58;20.40;;;8.67;;
3343;SDS011;1685;53.104;8.228;2022-12-07T03:08:22;11.77;;;7.10;;
3343;SDS011;1685;53.104;8.228;2022-12-07T03:10:56;11.43;;;7.57;;
3343;SDS011;1685;53.104;8.228;2022-12-07T03:13:27;15.43;;;7.30;;
3343;SDS011;1685;53.104;8.228;2022-12-07T03:16:01;13.07;;;7.30;;
3343;SDS011;1685;53.104;8.228;2022-12-07T03:18:32;15.93;;;6.70;;
3343;SDS011;1685;53.104;8.228;2022-12-07T03:21:04;9.43;;;5.30;;
3343;SDS011;1685;53.104;8.228;2022-12-07T03:23:34;17.40;;;5.63;;
3343;SDS011;1685;53.104;8.228;2022-12-07T03:26:04;11.33;;;5.90;;
3343;SDS011;1685;53.104;8.228;2022-12-07T03:28:35;8.53;;;5.33;;
3343;SDS011;1685;53.104;8.228;2022-12-07T03:31:09;9.00;;;5.10;;
3343;SDS011;1685;53.104;8.228;2022-12-07T03:33:42;8.63;;;4.53;;
3343;SDS011;1685;53.104;8.228;2022-12-07T03:36:14;8.13;;;4.10;;
3343;SDS011;1685;53.104;8.228;2022-12-07T03:38:48;9.20;;;4.30;;
3343;SDS011;1685;53.104;8.228;2022-12-07T03:41:19;11.97;;;3.70;;
3343;SDS011;1685;53.104;8.228;2022-12-07T03:43:49;5.90;;;3.30;;
3343;SDS011;1685;53.104;8.228;2022-12-07T03:46:19;12.20;;;3.63;;
3343;SDS011;1685;53.104;8.228;2022-12-07T03:48:54;10.43;;;3.37;;
3343;SDS011;1685;53.104;8.228;2022-12-07T03:51:26;5.10;;;3.67;;
3343;SDS011;1685;53.104;8.228;2022-12-07T03:53:58;3.60;;;2.33;;
3343;SDS011;1685;53.104;8.228;2022-12-07T03:56:31;10.43;;;3.00;;
3343;SDS011;1685;53.104;8.228;2022-12-07T03:58:59;6.90;;;2.67;;
3343;SDS011;1685;53.104;8.228;2022-12-07T04:01:27;6.37;;;2.53;;
3343;SDS011;1685;53.104;8.228;2022-12-07T04:03:54;5.10;;;2.37;;
3343;SDS011;1685;53.104;8.228;2022-12-07T04:06:21;7.23;;;2.60;;
3343;SDS011;1685;53.104;8.228;2022-12-07T04:08:47;2.90;;;2.50;;
3343;SDS011;1685;53.104;8.228;2022-12-07T04:11:14;14.37;;;2.90;;
3343;SDS011;1685;53.104;8.228;2022-12-07T04:13:41;7.93;;;3.73;;
3343;SDS011;1685;53.104;8.228;2022-12-07T04:16:27;5.20;;;3.27;;
3343;SDS011;1685;53.104;8.228;2022-12-07T04:18:54;9.30;;;4.30;;
3343;SDS011;1685;53.104;8.228;2022-12-07T04:21:20;17.73;;;4.63;;
3343;SDS011;1685;53.104;8.228;2022-12-07T04:23:47;7.40;;;3.60;;
3343;SDS011;1685;53.104;8.228;2022-12-07T04:26:14;7.57;;;2.80;;
3343;SDS011;1685;53.104;8.228;2022-12-07T04:28:42;9.40;;;3.40;;
3343;SDS011;1685;53.104;8.228;2022-12-07T04:31:08;3.97;;;2.37;;
3343;SDS011;1685;53.104;8.228;2022-12-07T04:33:37;5.33;;;2.37;;
3343;SDS011;1685;53.104;8.228;2022-12-07T04:36:04;5.20;;;2.97;;
3343;SDS011;1685;53.104;8.228;2022-12-07T04:38:31;5.27;;;2.80;;
3343;SDS011;1685;53.104;8.228;2022-12-07T04:40:58;11.40;;;3.40;;
3343;SDS011;1685;53.104;8.228;2022-12-07T04:43:29;14.80;;;3.63;;
3343;SDS011;1685;53.104;8.228;2022-12-07T04:45:56;7.73;;;2.97;;
3343;SDS011;1685;53.104;8.228;2022-12-07T04:48:23;3.33;;;2.50;;
3343;SDS011;1685;53.104;8.228;2022-12-07T04:50:52;5.83;;;2.57;;
3343;SDS011;1685;53.104;8.228;2022-12-07T04:53:19;3.87;;;2.43;;
3343;SDS011;1685;53.104;8.228;2022-12-07T04:55:45;8.40;;;3.00;;
3343;SDS011;1685;53.104;8.228;2022-12-07T04:58:12;4.77;;;2.40;;
3343;SDS011;1685;53.104;8.228;2022-12-07T05:00:40;6.63;;;2.30;;
3343;SDS011;1685;53.104;8.228;2022-12-07T05:03:07;9.30;;;1.97;;
3343;SDS011;1685;53.104;8.228;2022-12-07T05:05:34;3.00;;;2.10;;
3343;SDS011;1685;53.104;8.228;2022-12-07T05:08:02;4.27;;;1.87;;
3343;SDS011;1685;53.104;8.228;2022-12-07T05:10:28;4.87;;;2.03;;
3343;SDS011;1685;53.104;8.228;2022-12-07T05:12:55;9.77;;;2.23;;
3343;SDS011;1685;53.104;8.228;2022-12-07T05:15:22;5.43;;;1.63;;
3343;SDS011;1685;53.104;8.228;2022-12-07T05:17:49;7.10;;;1.70;;
3343;SDS011;1685;53.104;8.228;2022-12-07T05:20:17;9.43;;;2.10;;
3343;SDS011;1685;53.104;8.228;2022-12-07T05:22:44;4.10;;;1.70;;
3343;SDS011;1685;53.104;8.228;2022-12-07T05:25:12;5.53;;;1.77;;
3343;SDS011;1685;53.104;8.228;2022-12-07T05:27:38;5.50;;;1.60;;
3343;SDS011;1685;53.104;8.228;2022-12-07T05:30:06;6.47;;;1.97;;
3343;SDS011;1685;53.104;8.228;2022-12-07T05:32:33;5.47;;;2.13;;
3343;SDS011;1685;53.104;8.228;2022-12-07T05:35:00;13.30;;;1.80;;
3343;SDS011;1685;53.104;8.228;2022-12-07T05:37:27;7.67;;;2.30;;
3343;SDS011;1685;53.104;8.228;2022-12-07T05:39:54;2.30;;;1.73;;
3343;SDS011;1685;53.104;8.228;2022-12-07T05:42:23;4.87;;;1.57;;
3343;SDS011;1685;53.104;8.228;2022-12-07T05:44:50;5.40;;;1.67;;
3343;SDS011;1685;53.104;8.228;2022-12-07T05:47:16;5.23;;;1.90;;
3343;SDS011;1685;53.104;8.228;2022-12-07T05:49:43;8.43;;;1.87;;
3343;SDS011;1685;53.104;8.228;2022-12-07T05:52:11;11.47;;;1.90;;
3343;SDS011;1685;53.104;8.228;2022-12-07T05:54:38;10.70;;;2.60;;
3343;SDS011;1685;53.104;8.228;2022-12-07T05:57:04;5.43;;;2.30;;
3343;SDS011;1685;53.104;8.228;2022-12-07T05:59:32;3.60;;;1.97;;
3343;SDS011;1685;53.104;8.228;2022-12-07T06:01:59;1.70;;;1.60;;
3343;SDS011;1685;53.104;8.228;2022-12-07T06:04:28;4.57;;;2.10;;
3343;SDS011;1685;53.104;8.228;2022-12-07T06:06:56;5.03;;;1.90;;
3343;SDS011;1685;53.104;8.228;2022-12-07T06:09:23;3.97;;;1.50;;
3343;SDS011;1685;53.104;8.228;2022-12-07T06:11:51;5.17;;;2.03;;
3343;SDS011;1685;53.104;8.228;2022-12-07T06:14:37;3.20;;;1.70;;
3343;SDS011;1685;53.104;8.228;2022-12-07T06:17:04;5.60;;;2.30;;
3343;SDS011;1685;53.104;8.228;2022-12-07T06:19:31;3.80;;;2.10;;
3343;SDS011;1685;53.104;8.228;2022-12-07T06:21:58;3.97;;;2.07;;
3343;SDS011;1685;53.104;8.228;2022-12-07T06:24:25;3.57;;;1.83;;
3343;SDS011;1685;53.104;8.228;2022-12-07T06:26:51;2.73;;;2.00;;
3343;SDS011;1685;53.104;8.228;2022-12-07T06:29:18;3.77;;;1.70;;
3343;SDS011;1685;53.104;8.228;2022-12-07T06:31:47;5.50;;;1.67;;
3343;SDS011;1685;53.104;8.228;2022-12-07T06:34:14;11.60;;;2.37;;
3343;SDS011;1685;53.104;8.228;2022-12-07T06:36:42;5.40;;;2.00;;
3343;SDS011;1685;53.104;8.228;2022-12-07T06:39:10;1.93;;;1.53;;
3343;SDS011;1685;53.104;8.228;2022-12-07T06:41:39;10.07;;;2.40;;
3343;SDS011;1685;53.104;8.228;2022-12-07T06:44:06;12.97;;;1.83;;
3343;SDS011;1685;53.104;8.228;2022-12-07T06:46:33;4.40;;;1.50;;
3343;SDS011;1685;53.104;8.228;2022-12-07T06:49:01;6.70;;;1.57;;
3343;SDS011;1685;53.104;8.228;2022-12-07T06:51:29;12.20;;;1.30;;
3343;SDS011;1685;53.104;8.228;2022-12-07T06:53:56;6.37;;;1.77;;
3343;SDS011;1685;53.104;8.228;2022-12-07T06:56:23;2.73;;;1.00;;
3343;SDS011;1685;53.104;8.228;2022-12-07T06:58:50;4.37;;;1.40;;
3343;SDS011;1685;53.104;8.228;2022-12-07T07:01:17;9.60;;;2.00;;
3343;SDS011;1685;53.104;8.228;2022-12-07T07:03:44;2.03;;;1.40;;
3343;SDS011;1685;53.104;8.228;2022-12-07T07:06:14;3.47;;;1.37;;
3343;SDS011;1685;53.104;8.228;2022-12-07T07:08:41;3.30;;;1.20;;
3343;SDS011;1685;53.104;8.228;2022-12-07T07:11:08;2.10;;;1.23;;
3343;SDS011;1685;53.104;8.228;2022-12-07T07:13:35;4.23;;;1.60;;
3343;SDS011;1685;53.104;8.228;2022-12-07T07:16:02;1.40;;;1.40;;
3343;SDS011;1685;53.104;8.228;2022-12-07T07:18:29;2.20;;;1.10;;
3343;SDS011;1685;53.104;8.228;2022-12-07T07:20:56;1.50;;;1.30;;
3343;SDS011;1685;53.104;8.228;2022-12-07T07:23:24;1.20;;;1.10;;
3343;SDS011;1685;53.104;8.228;2022-12-07T07:25:51;6.17;;;2.23;;
3343;SDS011;1685;53.104;8.228;2022-12-07T07:28:18;2.23;;;1.50;;
3343;SDS011;1685;53.104;8.228;2022-12-07T07:30:45;1.50;;;1.40;;
3343;SDS011;1685;53.104;8.228;2022-12-07T07:33:12;3.90;;;1.50;;
3343;SDS011;1685;53.104;8.228;2022-12-07T07:35:40;9.93;;;3.73;;
3343;SDS011;1685;53.104;8.228;2022-12-07T07:38:07;7.70;;;2.07;;
3343;SDS011;1685;53.104;8.228;2022-12-07T07:40:35;5.20;;;1.53;;
3343;SDS011;1685;53.104;8.228;2022-12-07T07:43:02;5.63;;;1.40;;
3343;SDS011;1685;53.104;8.228;2022-12-07T07:45:29;1.57;;;1.47;;
3343;SDS011;1685;53.104;8.228;2022-12-07T07:47:57;4.00;;;1.60;;
3343;SDS011;1685;53.104;8.228;2022-12-07T07:50:24;2.57;;;2.30;;
3343;SDS011;1685;53.104;8.228;2022-12-07T07:52:51;1.73;;;1.60;;
3343;SDS011;1685;53.104;8.228;2022-12-07T07:55:18;1.63;;;1.53;;
3343;SDS011;1685;53.104;8.228;2022-12-07T07:57:46;2.20;;;1.70;;
3343;SDS011;1685;53.104;8.228;2022-12-07T08:00:14;3.23;;;1.80;;
3343;SDS011;1685;53.104;8.228;2022-12-07T08:02:42;2.40;;;1.80;;
3343;SDS011;1685;53.104;8.228;2022-12-07T08:05:09;2.07;;;1.90;;
3343;SDS011;1685;53.104;8.228;2022-12-07T08:07:37;8.53;;;1.97;;
3343;SDS011;1685;53.104;8.228;2022-12-07T08:10:04;8.03;;;2.10;;
3343;SDS011;1685;53.104;8.228;2022-12-07T08:12:35;8.90;;;3.00;;
3343;SDS011;1685;53.104;8.228;2022-12-07T08:15:04;6.20;;;2.53;;
3343;SDS011;1685;53.104;8.228;2022-12-07T08:17:31;3.57;;;2.47;;
3343;SDS011;1685;53.104;8.228;2022-12-07T08:19:59;7.60;;;2.20;;
3343;SDS011;1685;53.104;8.228;2022-12-07T08:22:26;4.73;;;2.50;;
3343;SDS011;1685;53.104;8.228;2022-12-07T08:24:53;5.50;;;2.60;;
3343;SDS011;1685;53.104;8.228;2022-12-07T08:27:20;8.67;;;2.70;;
3343;SDS011;1685;53.104;8.228;2022-12-07T08:29:51;7.00;;;2.90;;
3343;SDS011;1685;53.104;8.228;2022-12-07T08:32:20;2.30;;;2.10;;
3343;SDS011;1685;53.104;8.228;2022-12-07T08:34:46;7.63;;;2.53;;
3343;SDS011;1685;53.104;8.228;2022-12-07T08:37:14;4.23;;;2.60;;
3343;SDS011;1685;53.104;8.228;2022-12-07T08:39:42;7.47;;;3.43;;
3343;SDS011;1685;53.104;8.228;2022-12-07T08:42:09;6.80;;;3.70;;
3343;SDS011;1685;53.104;8.228;2022-12-07T08:44:36;4.97;;;3.13;;
3343;SDS011;1685;53.104;8.228;2022-12-07T08:47:04;14.33;;;4.87;;
3343;SDS011;1685;53.104;8.228;2022-12-07T08:49:35;6.13;;;4.50;;
3343;SDS011;1685;53.104;8.228;2022-12-07T08:52:05;16.23;;;4.30;;
3343;SDS011;1685;53.104;8.228;2022-12-07T08:54:32;11.87;;;5.67;;
3343;SDS011;1685;53.104;8.228;2022-12-07T08:57:01;5.43;;;3.80;;
3343;SDS011;1685;53.104;8.228;2022-12-07T08:59:28;2.53;;;2.33;;
3343;SDS011;1685;53.104;8.228;2022-12-07T09:01:56;10.30;;;2.47;;
3343;SDS011;1685;53.104;8.228;2022-12-07T09:04:23;3.83;;;3.10;;
3343;SDS011;1685;53.104;8.228;2022-12-07T09:06:51;9.70;;;3.50;;
3343;SDS011;1685;53.104;8.228;2022-12-07T09:09:19;9.93;;;3.90;;
3343;SDS011;1685;53.104;8.228;2022-12-07T09:11:46;10.23;;;3.90;;
3343;SDS011;1685;53.104;8.228;2022-12-07T09:14:13;4.83;;;3.20;;
3343;SDS011;1685;53.104;8.228;2022-12-07T09:16:42;5.10;;;2.70;;
3343;SDS011;1685;53.104;8.228;2022-12-07T09:19:09;6.90;;;3.00;;
3343;SDS011;1685;53.104;8.228;2022-12-07T09:21:36;3.50;;;3.20;;
3343;SDS011;1685;53.104;8.228;2022-12-07T09:24:04;6.43;;;3.60;;
3343;SDS011;1685;53.104;8.228;2022-12-07T09:26:32;5.47;;;3.97;;
3343;SDS011;1685;53.104;8.228;2022-12-07T09:29:00;4.20;;;2.97;;
3343;SDS011;1685;53.104;8.228;2022-12-07T09:31:27;6.63;;;3.20;;
3343;SDS011;1685;53.104;8.228;2022-12-07T09:33:54;7.70;;;3.40;;
3343;SDS011;1685;53.104;8.228;2022-12-07T09:36:21;4.00;;;2.97;;
3343;SDS011;1685;53.104;8.228;2022-12-07T09:38:48;6.40;;;3.00;;
3343;SDS011;1685;53.104;8.228;2022-12-07T09:41:17;4.50;;;2.73;;
3343;SDS011;1685;53.104;8.228;2022-12-07T09:43:44;4.53;;;3.40;;
3343;SDS011;1685;53.104;8.228;2022-12-07T09:46:13;7.73;;;3.30;;
3343;SDS011;1685;53.104;8.228;2022-12-07T09:48:42;5.03;;;3.30;;
3343;SDS011;1685;53.104;8.228;2022-12-07T09:51:13;6.33;;;2.20;;
3343;SDS011;1685;53.104;8.228;2022-12-07T09:53:42;5.03;;;3.73;;
3343;SDS011;1685;53.104;8.228;2022-12-07T09:56:10;10.70;;;2.57;;
3343;SDS011;1685;53.104;8.228;2022-12-07T09:58:40;2.60;;;2.40;;
3343;SDS011;1685;53.104;8.228;2022-12-07T10:01:09;10.43;;;2.80;;
3343;SDS011;1685;53.104;8.228;2022-12-07T10:03:39;6.67;;;3.27;;
3343;SDS011;1685;53.104;8.228;2022-12-07T10:06:15;5.37;;;2.83;;
3343;SDS011;1685;53.104;8.228;2022-12-07T10:08:42;8.20;;;3.40;;
3343;SDS011;1685;53.104;8.228;2022-12-07T10:11:10;13.70;;;3.53;;
3343;SDS011;1685;53.104;8.228;2022-12-07T10:13:41;7.70;;;2.80;;
3343;SDS011;1685;53.104;8.228;2022-12-07T10:16:25;5.87;;;2.97;;
3343;SDS011;1685;53.104;8.228;2022-12-07T10:18:58;9.13;;;2.80;;
3343;SDS011;1685;53.104;8.228;2022-12-07T10:21:48;11.43;;;2.67;;
3343;SDS011;1685;53.104;8.228;2022-12-07T10:24:30;5.77;;;2.20;;
3343;SDS011;1685;53.104;8.228;2022-12-07T10:26:57;3.90;;;2.80;;
3343;SDS011;1685;53.104;8.228;2022-12-07T10:29:27;10.20;;;3.40;;
3343;SDS011;1685;53.104;8.228;2022-12-07T10:31:57;5.57;;;2.10;;
3343;SDS011;1685;53.104;8.228;2022-12-07T10:34:26;8.17;;;3.10;;
3343;SDS011;1685;53.104;8.228;2022-12-07T10:37:07;4.60;;;1.83;;
3343;SDS011;1685;53.104;8.228;2022-12-07T10:39:42;14.13;;;2.30;;
3343;SDS011;1685;53.104;8.228;2022-12-07T10:42:18;7.67;;;2.53;;
3343;SDS011;1685;53.104;8.228;2022-12-07T10:44:47;5.17;;;2.20;;
3343;SDS011;1685;53.104;8.228;2022-12-07T10:47:18;3.23;;;1.77;;
3343;SDS011;1685;53.104;8.228;2022-12-07T10:50:02;6.87;;;1.60;;
3343;SDS011;1685;53.104;8.228;2022-12-07T10:53:04;3.30;;;1.90;;
3343;SDS011;1685;53.104;8.228;2022-12-07T10:55:53;7.00;;;2.23;;
3343;SDS011;1685;53.104;8.228;2022-12-07T10:58:37;6.80;;;2.40;;
3343;SDS011;1685;53.104;8.228;2022-12-07T11:01:18;4.87;;;2.43;;
3343;SDS011;1685;53.104;8.228;2022-12-07T11:03:53;9.33;;;1.77;;
3343;SDS011;1685;53.104;8.228;2022-12-07T11:06:32;6.10;;;2.43;;
3343;SDS011;1685;53.104;8.228;2022-12-07T11:09:04;3.87;;;1.87;;
3343;SDS011;1685;53.104;8.228;2022-12-07T11:11:57;7.93;;;1.97;;
3343;SDS011;1685;53.104;8.228;2022-12-07T11:14:35;4.80;;;2.00;;
3343;SDS011;1685;53.104;8.228;2022-12-07T11:17:09;10.13;;;2.20;;
3343;SDS011;1685;53.104;8.228;2022-12-07T11:19:46;6.87;;;2.47;;
3343;SDS011;1685;53.104;8.228;2022-12-07T11:22:18;7.23;;;2.80;;
3343;SDS011;1685;53.104;8.228;2022-12-07T11:24:50;2.60;;;1.50;;
3343;SDS011;1685;53.104;8.228;2022-12-07T11:27:29;4.70;;;1.77;;
3343;SDS011;1685;53.104;8.228;2022-12-07T11:30:08;9.67;;;2.00;;
3343;SDS011;1685;53.104;8.228;2022-12-07T11:32:47;5.50;;;2.27;;
3343;SDS011;1685;53.104;8.228;2022-12-07T11:35:22;5.47;;;2.10;;
3343;SDS011;1685;53.104;8.228;2022-12-07T11:37:57;11.10;;;2.50;;
3343;SDS011;1685;53.104;8.228;2022-12-07T11:40:28;5.70;;;1.70;;
3343;SDS011;1685;53.104;8.228;2022-12-07T11:43:00;9.00;;;1.87;;
3343;SDS011;1685;53.104;8.228;2022-12-07T11:45:31;2.90;;;2.00;;
3343;SDS011;1685;53.104;8.228;2022-12-07T11:48:01;8.07;;;2.20;;
3343;SDS011;1685;53.104;8.228;2022-12-07T11:50:32;9.57;;;2.40;;
3343;SDS011;1685;53.104;8.228;2022-12-07T11:53:02;3.47;;;1.60;;
3343;SDS011;1685;53.104;8.228;2022-12-07T11:55:40;8.23;;;2.07;;
3343;SDS011;1685;53.104;8.228;2022-12-07T11:58:20;4.37;;;2.10;;
3343;SDS011;1685;53.104;8.228;2022-12-07T12:01:01;9.57;;;1.90;;
3343;SDS011;1685;53.104;8.228;2022-12-07T12:03:40;8.60;;;2.10;;
3343;SDS011;1685;53.104;8.228;2022-12-07T12:06:11;5.80;;;2.10;;
3343;SDS011;1685;53.104;8.228;2022-12-07T12:08:38;3.80;;;1.70;;
3343;SDS011;1685;53.104;8.228;2022-12-07T12:11:13;8.27;;;2.53;;
3343;SDS011;1685;53.104;8.228;2022-12-07T12:13:58;4.53;;;1.70;;
3343;SDS011;1685;53.104;8.228;2022-12-07T12:16:49;20.50;;;2.17;;
3343;SDS011;1685;53.104;8.228;2022-12-07T12:19:34;6.27;;;1.87;;
3343;SDS011;1685;53.104;8.228;2022-12-07T12:22:10;4.80;;;1.77;;
3343;SDS011;1685;53.104;8.228;2022-12-07T12:24:40;8.13;;;2.20;;
3343;SDS011;1685;53.104;8.228;2022-12-07T12:27:10;8.63;;;2.57;;
3343;SDS011;1685;53.104;8.228;2022-12-07T12:29:45;8.50;;;2.40;;
3343;SDS011;1685;53.104;8.228;2022-12-07T12:32:20;7.03;;;1.63;;
3343;SDS011;1685;53.104;8.228;2022-12-07T12:35:02;6.23;;;2.07;;
3343;SDS011;1685;53.104;8.228;2022-12-07T12:37:48;4.40;;;2.60;;
3343;SDS011;1685;53.104;8.228;2022-12-07T12:40:40;6.00;;;2.03;;
3343;SDS011;1685;53.104;8.228;2022-12-07T12:46:36;7.83;;;1.80;;
3343;SDS011;1685;53.104;8.228;2022-12-07T12:55:14;4.67;;;2.03;;
3343;SDS011;1685;53.104;8.228;2022-12-07T12:57:45;3.80;;;2.17;;
3343;SDS011;1685;53.104;8.228;2022-12-07T13:00:16;6.97;;;4.10;;
3343;SDS011;1685;53.104;8.228;2022-12-07T13:02:48;7.00;;;2.20;;
3343;SDS011;1685;53.104;8.228;2022-12-07T13:05:18;1.53;;;1.30;;
3343;SDS011;1685;53.104;8.228;2022-12-07T13:07:50;2.07;;;1.50;;
3343;SDS011;1685;53.104;8.228;2022-12-07T13:10:25;12.13;;;1.90;;
3343;SDS011;1685;53.104;8.228;2022-12-07T13:13:04;3.33;;;2.20;;
3343;SDS011;1685;53.104;8.228;2022-12-07T13:15:55;5.67;;;2.10;;
3343;SDS011;1685;53.104;8.228;2022-12-07T13:22:01;3.13;;;1.53;;
3343;SDS011;1685;53.104;8.228;2022-12-07T13:24:29;4.50;;;1.77;;
3343;SDS011;1685;53.104;8.228;2022-12-07T13:26:58;4.00;;;1.57;;
3343;SDS011;1685;53.104;8.228;2022-12-07T13:29:26;4.73;;;1.33;;
3343;SDS011;1685;53.104;8.228;2022-12-07T13:31:53;6.07;;;1.60;;
3343;SDS011;1685;53.104;8.228;2022-12-07T13:34:29;11.23;;;1.70;;
3343;SDS011;1685;53.104;8.228;2022-12-07T13:36:57;3.63;;;1.53;;
3343;SDS011;1685;53.104;8.228;2022-12-07T13:39:26;5.63;;;1.60;;
3343;SDS011;1685;53.104;8.228;2022-12-07T13:41:55;2.77;;;1.20;;
3343;SDS011;1685;53.104;8.228;2022-12-07T13:44:24;2.90;;;2.00;;
3343;SDS011;1685;53.104;8.228;2022-12-07T13:46:54;3.97;;;2.50;;
3343;SDS011;1685;53.104;8.228;2022-12-07T13:49:26;5.50;;;2.60;;
3343;SDS011;1685;53.104;8.228;2022-12-07T13:51:54;9.87;;;1.90;;
3343;SDS011;1685;53.104;8.228;2022-12-07T13:54:33;4.63;;;2.10;;
3343;SDS011;1685;53.104;8.228;2022-12-07T13:57:12;3.60;;;2.00;;
3343;SDS011;1685;53.104;8.228;2022-12-07T13:59:39;7.90;;;2.20;;
3343;SDS011;1685;53.104;8.228;2022-12-07T14:02:16;5.07;;;1.73;;
3343;SDS011;1685;53.104;8.228;2022-12-07T14:04:45;2.60;;;1.50;;
3343;SDS011;1685;53.104;8.228;2022-12-07T14:07:22;9.50;;;1.77;;
3343;SDS011;1685;53.104;8.228;2022-12-07T14:09:58;6.50;;;1.70;;
3343;SDS011;1685;53.104;8.228;2022-12-07T14:12:28;4.30;;;1.90;;
3343;SDS011;1685;53.104;8.228;2022-12-07T14:14:56;6.50;;;2.83;;
3343;SDS011;1685;53.104;8.228;2022-12-07T14:17:24;8.80;;;2.30;;
3343;SDS011;1685;53.104;8.228;2022-12-07T14:19:52;2.90;;;1.40;;
3343;SDS011;1685;53.104;8.228;2022-12-07T14:22:22;2.10;;;1.10;;
3343;SDS011;1685;53.104;8.228;2022-12-07T14:24:58;4.87;;;1.40;;
3343;SDS011;1685;53.104;8.228;2022-12-07T14:27:49;4.50;;;1.50;;
3343;SDS011;1685;53.104;8.228;2022-12-07T14:30:18;3.90;;;0.90;;
3343;SDS011;1685;53.104;8.228;2022-12-07T14:32:45;3.47;;;1.00;;
3343;SDS011;1685;53.104;8.228;2022-12-07T14:35:18;3.67;;;1.13;;
3343;SDS011;1685;53.104;8.228;2022-12-07T14:37:46;4.50;;;3.90;;
3343;SDS011;1685;53.104;8.228;2022-12-07T14:40:15;1.83;;;1.40;;
3343;SDS011;1685;53.104;8.228;2022-12-07T14:42:44;1.57;;;1.47;;
3343;SDS011;1685;53.104;8.228;2022-12-07T14:45:15;8.90;;;2.20;;
3343;SDS011;1685;53.104;8.228;2022-12-07T14:47:43;3.57;;;1.97;;
3343;SDS011;1685;53.104;8.228;2022-12-07T14:50:11;5.03;;;2.23;;
3343;SDS011;1685;53.104;8.228;2022-12-07T14:52:39;7.10;;;2.90;;
3343;SDS011;1685;53.104;8.228;2022-12-07T14:55:11;6.33;;;1.60;;
3343;SDS011;1685;53.104;8.228;2022-12-07T14:57:40;2.13;;;1.83;;
3343;SDS011;1685;53.104;8.228;2022-12-07T15:00:08;2.80;;;2.23;;
3343;SDS011;1685;53.104;8.228;2022-12-07T15:02:40;6.30;;;2.23;;
3343;SDS011;1685;53.104;8.228;2022-12-07T15:05:07;7.40;;;2.03;;
3343;SDS011;1685;53.104;8.228;2022-12-07T15:07:34;2.13;;;2.03;;
3343;SDS011;1685;53.104;8.228;2022-12-07T15:10:02;6.67;;;2.13;;
3343;SDS011;1685;53.104;8.228;2022-12-07T15:12:30;8.70;;;3.77;;
3343;SDS011;1685;53.104;8.228;2022-12-07T15:14:57;8.23;;;2.70;;
3343;SDS011;1685;53.104;8.228;2022-12-07T15:17:24;2.23;;;2.00;;
3343;SDS011;1685;53.104;8.228;2022-12-07T15:19:52;3.23;;;2.20;;
3343;SDS011;1685;53.104;8.228;2022-12-07T15:22:19;4.00;;;2.73;;
3343;SDS011;1685;53.104;8.228;2022-12-07T15:24:46;6.40;;;2.90;;
3343;SDS011;1685;53.104;8.228;2022-12-07T15:27:13;5.73;;;3.67;;
3343;SDS011;1685;53.104;8.228;2022-12-07T15:29:40;4.67;;;2.90;;
3343;SDS011;1685;53.104;8.228;2022-12-07T15:32:07;6.50;;;3.40;;
3343;SDS011;1685;53.104;8.228;2022-12-07T15:34:34;3.87;;;3.43;;
3343;SDS011;1685;53.104;8.228;2022-12-07T15:37:02;6.57;;;4.60;;
3343;SDS011;1685;53.104;8.228;2022-12-07T15:39:29;4.67;;;3.40;;
3343;SDS011;1685;53.104;8.228;2022-12-07T15:41:56;8.73;;;4.23;;
3343;SDS011;1685;53.104;8.228;2022-12-07T15:44:23;11.33;;;5.07;;
3343;SDS011;1685;53.104;8.228;2022-12-07T15:47:08;4.20;;;3.50;;